Time;durP1;ratioP1;P1;durP2;ratioP2;P2;SDS_P1;SDS_P2;PMS_P1;PMS_P2;Temp;Humidity;BMP_temperature;BMP_pressure;BME280_temperature;BME280_humidity;BME280_pressure;Samples;Min_cycle;Max_cycle;Signal;HPM_P1;HPM_P2
2022/02/03 00:00:40;;;;;;;2.67;2.42;;;;;;;;;;4815731;29;87067;-78
2022/02/03 00:27:49;;;;;;;5.57;4.57;;;;;;;;;;4809352;29;88691;-72
2022/02/03 00:30:19;;;;;;;4.82;3.72;;;;;;;;;;4821601;29;87826;-71
2022/02/03 00:48:57;;;;;;;7.85;5.47;;;;;;;;;;4827112;29;89789;-71
2022/02/03 00:51:26;;;;;;;18.20;5.95;;;;;;;;;;4816162;29;88919;-71
2022/02/03 00:53:57;;;;;;;7.53;4.65;;;;;;;;;;4843212;29;86832;-70
2022/02/03 00:56:33;;;;;;;7.13;5.00;;;;;;;;;;4813822;29;86990;-70
2022/02/03 00:59:12;;;;;;;5.32;4.40;;;;;;;;;;4797558;29;88211;-71
2022/02/03 01:01:45;;;;;;;8.18;4.80;;;;;;;;;;4843466;29;87883;-70
2022/02/03 01:04:13;;;;;;;7.50;5.30;;;;;;;;;;4821744;29;86867;-71
2022/02/03 01:06:52;;;;;;;5.88;4.70;;;;;;;;;;4810667;29;86108;-71
2022/02/03 01:09:22;;;;;;;11.10;4.35;;;;;;;;;;4823134;29;89487;-71
2022/02/03 01:12:00;;;;;;;5.32;4.72;;;;;;;;;;4827766;29;88280;-70
2022/02/03 01:14:43;;;;;;;5.55;4.85;;;;;;;;;;4827770;29;88429;-71
2022/02/03 01:17:27;;;;;;;6.25;4.25;;;;;;;;;;4832952;29;87711;-72
2022/02/03 01:44:56;;;;;;;8.23;5.00;;;;;;;;;;4832080;29;90108;-71
2022/02/03 01:47:35;;;;;;;9.57;4.97;;;;;;;;;;4830213;29;86890;-71
2022/02/03 01:52:41;;;;;;;4.90;4.40;;;;;;;;;;4830013;29;89417;-71
2022/02/03 01:55:11;;;;;;;8.15;4.50;;;;;;;;;;4830617;29;88761;-70
2022/02/03 01:57:52;;;;;;;4.93;3.92;;;;;;;;;;4831313;29;86916;-70
2022/02/03 02:00:21;;;;;;;6.07;4.47;;;;;;;;;;4830907;29;86257;-70
2022/02/03 02:02:57;;;;;;;11.35;4.72;;;;;;;;;;4845992;29;87590;-70
2022/02/03 02:05:37;;;;;;;5.47;3.55;;;;;;;;;;4831703;29;89729;-70
2022/02/03 02:08:22;;;;;;;4.38;3.63;;;;;;;;;;4831948;29;88321;-70
2022/02/03 02:43:05;;;;;;;4.75;2.85;;;;;;;;;;4795566;29;87068;-69
2022/02/03 02:45:32;;;;;;;3.42;3.13;;;;;;;;;;4829508;29;86888;-70
2022/02/03 02:48:09;;;;;;;4.13;3.72;;;;;;;;;;4831072;29;89240;-69
2022/02/03 02:50:47;;;;;;;3.08;2.85;;;;;;;;;;4831198;29;89152;-69
2022/02/03 02:53:36;;;;;;;3.63;3.33;;;;;;;;;;4829439;29;87367;-71
2022/02/03 03:02:09;;;;;;;3.08;2.78;;;;;;;;;;4829940;29;87728;-69
2022/02/03 03:30:28;;;;;;;7.35;5.65;;;;;;;;;;4830657;29;87202;-71
2022/02/03 03:33:17;;;;;;;5.82;4.88;;;;;;;;;;4828972;29;90325;-70
2022/02/03 03:35:49;;;;;;;8.40;5.20;;;;;;;;;;4829026;29;89075;-70
2022/02/03 03:38:27;;;;;;;7.50;5.63;;;;;;;;;;4830151;29;87055;-71
2022/02/03 03:40:56;;;;;;;7.20;4.57;;;;;;;;;;4820078;29;87032;-70
2022/02/03 03:43:43;;;;;;;6.15;5.45;;;;;;;;;;4828655;29;89933;-70
2022/02/03 03:46:17;;;;;;;9.35;5.75;;;;;;;;;;4828768;29;86862;-70
2022/02/03 03:48:46;;;;;;;5.97;4.80;;;;;;;;;;4830875;29;86927;-70
2022/02/03 03:51:15;;;;;;;7.20;5.03;;;;;;;;;;4830606;29;86336;-70
2022/02/03 03:53:58;;;;;;;7.88;5.90;;;;;;;;;;4830077;29;89001;-69
2022/02/03 03:56:35;;;;;;;7.80;5.65;;;;;;;;;;4828385;29;88925;-70
2022/02/03 03:59:49;;;;;;;7.68;5.10;;;;;;;;;;4827678;29;87966;-70
2022/02/03 04:40:08;;;;;;;8.90;6.47;;;;;;;;;;4816756;29;86896;-69
2022/02/03 04:42:49;;;;;;;10.82;5.50;;;;;;;;;;4828176;29;87526;-70
2022/02/03 05:21:03;;;;;;;10.60;6.68;;;;;;;;;;4827551;29;87756;-79
2022/02/03 05:44:43;;;;;;;8.20;6.15;;;;;;;;;;4829908;29;87995;-78
2022/02/03 06:08:48;;;;;;;16.50;13.60;;;;;;;;;;4831129;29;86891;-78
2022/02/03 06:13:45;;;;;;;10.48;7.65;;;;;;;;;;4830902;29;89769;-76
2022/02/03 06:24:48;;;;;;;18.73;8.35;;;;;;;;;;4832263;29;89022;-77
2022/02/03 06:29:33;;;;;;;8.68;7.72;;;;;;;;;;4827622;29;86969;-80
2022/02/03 06:32:00;;;;;;;13.75;10.95;;;;;;;;;;4830619;29;86894;-77
2022/02/03 06:34:27;;;;;;;16.63;11.57;;;;;;;;;;4830405;29;88144;-79
2022/02/03 06:36:55;;;;;;;14.25;11.95;;;;;;;;;;4814401;29;86913;-79
2022/02/03 06:39:22;;;;;;;13.38;11.07;;;;;;;;;;4832440;29;86726;-79
2022/02/03 06:41:53;;;;;;;19.63;12.73;;;;;;;;;;4830975;29;87760;-75
2022/02/03 06:44:27;;;;;;;14.60;9.50;;;;;;;;;;4822844;29;87743;-76
2022/02/03 06:46:58;;;;;;;10.90;8.83;;;;;;;;;;4809351;29;87954;-79
2022/02/03 06:52:17;;;;;;;12.02;10.13;;;;;;;;;;4817969;29;87961;-79
2022/02/03 06:55:00;;;;;;;12.32;10.73;;;;;;;;;;4813436;29;87560;-78
2022/02/03 06:57:35;;;;;;;13.55;12.25;;;;;;;;;;4801866;29;87056;-79
2022/02/03 07:00:08;;;;;;;19.13;13.43;;;;;;;;;;4816998;29;87008;-79
2022/02/03 07:02:40;;;;;;;20.67;14.85;;;;;;;;;;4827052;29;87673;-79
2022/02/03 07:05:08;;;;;;;32.58;16.17;;;;;;;;;;4832664;29;87706;-79
2022/02/03 07:07:39;;;;;;;24.23;13.80;;;;;;;;;;4832620;29;86812;-79
2022/02/03 07:10:08;;;;;;;28.48;18.20;;;;;;;;;;4832967;29;87296;-77
2022/02/03 07:12:35;;;;;;;25.90;17.83;;;;;;;;;;4832022;29;88848;-77
2022/02/03 07:15:04;;;;;;;25.92;16.85;;;;;;;;;;4847292;29;88560;-78
2022/02/03 07:17:33;;;;;;;24.58;19.17;;;;;;;;;;4844650;29;87522;-76
2022/02/03 07:20:03;;;;;;;28.02;18.30;;;;;;;;;;4830200;29;86936;-76
2022/02/03 07:22:31;;;;;;;23.38;17.25;;;;;;;;;;4830630;29;87430;-75
2022/02/03 07:24:58;;;;;;;25.80;18.58;;;;;;;;;;4829098;29;87334;-78
2022/02/03 07:27:26;;;;;;;30.02;19.65;;;;;;;;;;4821578;29;88097;-76
2022/02/03 07:29:54;;;;;;;23.48;18.80;;;;;;;;;;4844519;29;86288;-77
2022/02/03 07:32:22;;;;;;;33.03;20.23;;;;;;;;;;4828898;29;89572;-76
2022/02/03 07:34:53;;;;;;;31.02;18.58;;;;;;;;;;4825769;29;88242;-76
2022/02/03 07:37:26;;;;;;;27.17;18.73;;;;;;;;;;4828392;29;87979;-77
2022/02/03 07:39:54;;;;;;;;;;;;;;;;;;4831856;29;86927;-77
2022/02/03 07:42:27;;;;;;;21.13;15.38;;;;;;;;;;4831823;29;86799;-74
2022/02/03 07:44:54;;;;;;;24.55;15.15;;;;;;;;;;4830116;29;87727;-79
2022/02/03 07:47:22;;;;;;;22.25;15.25;;;;;;;;;;4828674;29;87180;-78
2022/02/03 07:49:50;;;;;;;36.00;17.45;;;;;;;;;;4828924;29;87718;-78
2022/02/03 07:52:17;;;;;;;17.88;15.63;;;;;;;;;;4828460;29;87890;-80
2022/02/03 07:54:44;;;;;;;20.25;13.63;;;;;;;;;;4826702;29;87588;-75
2022/02/03 07:57:11;;;;;;;19.92;14.50;;;;;;;;;;4844638;29;86953;-78
2022/02/03 07:59:38;;;;;;;20.63;13.57;;;;;;;;;;4828571;29;87005;-78
2022/02/03 08:02:07;;;;;;;21.20;16.88;;;;;;;;;;4825858;29;89982;-82
2022/02/03 08:04:42;;;;;;;23.25;14.77;;;;;;;;;;4828720;29;88369;-83
2022/02/03 08:07:10;;;;;;;17.63;15.70;;;;;;;;;;4826576;29;86992;-81
2022/02/03 08:09:59;;;;;;;24.63;15.38;;;;;;;;;;4828912;29;86983;-82
2022/02/03 08:12:31;;;;;;;22.65;17.08;;;;;;;;;;4803492;29;88046;-77
2022/02/03 08:15:00;;;;;;;21.52;18.75;;;;;;;;;;4832969;29;89006;-75
2022/02/03 08:17:39;;;;;;;20.05;17.13;;;;;;;;;;4832579;29;87272;-78
2022/02/03 08:20:14;;;;;;;29.92;19.88;;;;;;;;;;4838731;29;86270;-77
2022/02/03 08:22:47;;;;;;;35.53;22.13;;;;;;;;;;4842125;29;88053;-79
2022/02/03 08:25:24;;;;;;;30.67;21.77;;;;;;;;;;4831662;29;87575;-78
2022/02/03 08:30:47;;;;;;;30.50;22.63;;;;;;;;;;4834996;29;86919;-77
2022/02/03 08:33:19;;;;;;;32.58;23.38;;;;;;;;;;4834796;29;87826;-78
2022/02/03 08:35:49;;;;;;;35.22;22.08;;;;;;;;;;4835035;29;88701;-79
2022/02/03 08:38:34;;;;;;;29.02;21.33;;;;;;;;;;4837463;29;86896;-80
2022/02/03 08:41:02;;;;;;;28.85;19.83;;;;;;;;;;4849072;29;86980;-77
2022/02/03 08:43:31;;;;;;;30.95;22.38;;;;;;;;;;4832711;29;88183;-81
2022/02/03 08:46:00;;;;;;;26.48;20.15;;;;;;;;;;4835799;29;89350;-80
2022/02/03 08:48:27;;;;;;;29.20;22.00;;;;;;;;;;4834286;29;86941;-80
2022/02/03 08:51:02;;;;;;;36.80;22.08;;;;;;;;;;4836968;29;86885;-80
2022/02/03 08:53:34;;;;;;;31.70;20.95;;;;;;;;;;4832713;29;90117;-78
2022/02/03 09:37:15;;;;;;;27.27;19.92;;;;;;;;;;4839908;29;89143;-81
2022/02/03 09:40:08;;;;;;;24.77;18.70;;;;;;;;;;4823350;29;88527;-81
2022/02/03 09:51:01;;;;;;;32.03;22.75;;;;;;;;;;4843789;29;88714;-76
2022/02/03 09:56:26;;;;;;;29.98;24.20;;;;;;;;;;4804018;29;88165;-76
2022/02/03 09:59:16;;;;;;;29.60;24.52;;;;;;;;;;4836731;29;88465;-80
2022/02/03 10:02:07;;;;;;;27.15;23.65;;;;;;;;;;4840300;29;87642;-78
2022/02/03 10:04:49;;;;;;;27.52;22.58;;;;;;;;;;4829033;29;87348;-82
2022/02/03 10:07:28;;;;;;;27.40;22.30;;;;;;;;;;4836118;29;86221;-78
2022/02/03 10:09:57;;;;;;;26.80;21.38;;;;;;;;;;4832472;29;88264;-78
2022/02/03 10:12:32;;;;;;;33.13;22.20;;;;;;;;;;4830679;29;88014;-80
2022/02/03 10:14:59;;;;;;;;;;;;;;;;;;4836109;29;88818;-77
2022/02/03 10:17:41;;;;;;;29.38;23.38;;;;;;;;;;4842518;29;87019;-75
2022/02/03 10:20:12;;;;;;;27.30;23.55;;;;;;;;;;4837363;29;88947;-82
2022/02/03 10:22:56;;;;;;;27.45;21.27;;;;;;;;;;4815234;29;88864;-79
2022/02/03 10:25:36;;;;;;;37.88;23.67;;;;;;;;;;4828913;29;87003;-79
2022/02/03 10:28:12;;;;;;;25.48;21.20;;;;;;;;;;4827143;29;87099;-82
2022/02/03 10:30:49;;;;;;;28.52;22.60;;;;;;;;;;4826501;29;87891;-81
2022/02/03 10:33:19;;;;;;;24.38;19.60;;;;;;;;;;4814014;29;91078;-82
2022/02/03 10:35:58;;;;;;;26.05;20.33;;;;;;;;;;4830553;29;87046;-81
2022/02/03 10:41:25;;;;;;;25.33;20.92;;;;;;;;;;4834452;29;91157;-81
2022/02/03 10:46:51;;;;;;;31.65;23.20;;;;;;;;;;4814558;29;87054;-77
2022/02/03 10:50:10;;;;;;;33.63;24.23;;;;;;;;;;4841210;29;86998;-75
2022/02/03 10:53:13;;;;;;;26.42;21.88;;;;;;;;;;4816931;29;87830;-77
2022/02/03 11:11:56;;;;;;;23.52;20.58;;;;;;;;;;4814666;29;87678;-77
2022/02/03 11:14:28;;;;;;;28.20;22.15;;;;;;;;;;4812059;29;88438;-75
2022/02/03 11:16:59;;;;;;;27.30;22.77;;;;;;;;;;4809447;29;88562;-77
2022/02/03 11:19:32;;;;;;;29.35;22.20;;;;;;;;;;4799791;29;87341;-81
2022/02/03 11:22:08;;;;;;;31.17;21.85;;;;;;;;;;4826401;29;87054;-76
2022/02/03 11:24:47;;;;;;;28.48;20.25;;;;;;;;;;4812258;29;88952;-78
2022/02/03 11:27:28;;;;;;;30.95;21.50;;;;;;;;;;4814562;29;87760;-77
2022/02/03 11:33:10;;;;;;;26.35;19.27;;;;;;;;;;4835286;29;87475;-76
2022/02/03 11:59:20;;;;;;;23.45;19.92;;;;;;;;;;4840529;29;87813;-77
2022/02/03 12:02:13;;;;;;;24.33;21.50;;;;;;;;;;4833140;29;87053;-77
2022/02/03 12:11:21;;;;;;;22.52;19.85;;;;;;;;;;4821863;29;87830;-74
2022/02/03 12:19:29;;;;;;;34.35;21.58;;;;;;;;;;4842663;29;87179;-77
2022/02/03 12:22:22;;;;;;;29.77;20.83;;;;;;;;;;4835820;29;87952;-79
2022/02/03 12:25:22;;;;;;;22.88;20.48;;;;;;;;;;4830591;29;87731;-79
2022/02/03 12:28:25;;;;;;;24.10;19.90;;;;;;;;;;4828557;29;87036;-80
2022/02/03 12:39:14;;;;;;;24.63;19.80;;;;;;;;;;4838791;29;87621;-80
2022/02/03 12:42:03;;;;;;;27.60;17.95;;;;;;;;;;4821061;29;88254;-77
2022/02/03 12:44:38;;;;;;;21.25;18.80;;;;;;;;;;4812038;29;88736;-79
2022/02/03 12:47:12;;;;;;;24.20;18.25;;;;;;;;;;4810498;29;88134;-79
2022/02/03 12:49:45;;;;;;;24.13;19.37;;;;;;;;;;4834029;29;87433;-79
2022/02/03 12:52:30;;;;;;;22.45;19.88;;;;;;;;;;4810682;29;86298;-79
2022/02/03 12:55:00;;;;;;;23.13;18.50;;;;;;;;;;4829995;29;87914;-73
2022/02/03 12:57:34;;;;;;;24.83;19.17;;;;;;;;;;4809653;29;88327;-81
2022/02/03 13:00:19;;;;;;;27.33;18.85;;;;;;;;;;4782728;29;1292040;-81
2022/02/03 13:03:09;;;;;;;24.27;18.85;;;;;;;;;;4840659;29;87298;-80
2022/02/03 13:05:39;;;;;;;24.13;19.75;;;;;;;;;;4827871;29;88723;-82
2022/02/03 13:08:08;;;;;;;21.23;19.00;;;;;;;;;;4828842;29;87590;-80
2022/02/03 13:10:37;;;;;;;22.70;16.92;;;;;;;;;;4822658;29;86855;-81
2022/02/03 13:13:37;;;;;;;22.08;16.92;;;;;;;;;;4828380;29;87090;-81
2022/02/03 13:16:11;;;;;;;21.27;16.63;;;;;;;;;;4827239;29;87965;-78
2022/02/03 13:18:47;;;;;;;25.13;17.42;;;;;;;;;;4826549;29;87927;-82
2022/02/03 13:21:36;;;;;;;19.88;17.15;;;;;;;;;;4830326;29;86884;-82
2022/02/03 13:26:48;;;;;;;25.20;17.25;;;;;;;;;;4820491;29;89019;-75
2022/02/03 13:29:24;;;;;;;29.35;18.63;;;;;;;;;;4827882;29;89983;-77
2022/02/03 13:31:57;;;;;;;20.67;15.45;;;;;;;;;;4808710;29;87250;-76
2022/02/03 13:34:31;;;;;;;18.33;16.40;;;;;;;;;;4823017;29;86869;-82
2022/02/03 13:37:19;;;;;;;19.17;16.65;;;;;;;;;;4822219;29;87760;-80
2022/02/03 13:39:48;;;;;;;22.35;15.70;;;;;;;;;;4821875;29;87716;-78
2022/02/03 13:42:16;;;;;;;21.48;15.50;;;;;;;;;;4816663;29;87082;-77
2022/02/03 13:44:43;;;;;;;14.48;12.95;;;;;;;;;;4826477;29;86344;-80
2022/02/03 13:47:24;;;;;;;19.58;14.07;;;;;;;;;;4826245;29;89603;-80
2022/02/03 13:50:12;;;;;;;18.90;13.15;;;;;;;;;;4827864;29;88947;-80
2022/02/03 13:52:47;;;;;;;20.20;13.90;;;;;;;;;;4841405;29;88138;-79
2022/02/03 14:15:32;;;;;;;18.77;12.75;;;;;;;;;;4807842;29;87229;-80
2022/02/03 14:20:47;;;;;;;18.58;12.48;;;;;;;;;;4807257;29;90041;-80
2022/02/03 14:28:33;;;;;;;30.17;12.57;;;;;;;;;;4810949;29;87321;-80
2022/02/03 14:31:04;;;;;;;12.55;10.57;;;;;;;;;;4810539;29;89341;-80
2022/02/03 14:33:35;;;;;;;14.40;10.68;;;;;;;;;;4812448;29;87605;-80
2022/02/03 14:36:12;;;;;;;18.75;11.73;;;;;;;;;;4811067;29;86939;-80
2022/02/03 14:41:16;;;;;;;17.23;12.52;;;;;;;;;;4810836;29;89092;-80
2022/02/03 14:43:43;;;;;;;22.00;12.35;;;;;;;;;;4812002;29;87990;-80
2022/02/03 14:46:27;;;;;;;14.23;11.33;;;;;;;;;;4810648;29;87793;-81
2022/02/03 14:48:54;;;;;;;16.77;11.13;;;;;;;;;;4811847;29;86958;-80
2022/02/03 14:51:26;;;;;;;17.45;10.18;;;;;;;;;;4810920;29;89677;-81
2022/02/03 14:57:59;;;;;;;14.05;10.85;;;;;;;;;;4810550;29;87663;-80
2022/02/03 14:59:25;;;;;;;26.35;11.82;;;;;;;;;;4817447;29;87116;-81
2022/02/03 15:01:52;;;;;;;11.93;9.70;;;;;;;;;;4829211;29;89357;-80
2022/02/03 15:04:28;;;;;;;20.52;13.23;;;;;;;;;;4814638;29;89362;-79
2022/02/03 15:07:04;;;;;;;;;;;;;;;;;;4815623;29;86926;-83
2022/02/03 15:15:00;;;;;;;16.92;9.68;;;;;;;;;;4830572;29;90077;-80
2022/02/03 15:17:29;;;;;;;16.10;13.18;;;;;;;;;;4830803;29;86806;-79
2022/02/03 15:19:58;;;;;;;27.90;12.10;;;;;;;;;;4829237;29;87634;-80
2022/02/03 15:22:26;;;;;;;22.20;11.70;;;;;;;;;;4829184;29;89663;-79
2022/02/03 15:24:53;;;;;;;19.10;13.15;;;;;;;;;;4844287;29;88974;-80
2022/02/03 15:27:20;;;;;;;18.00;14.02;;;;;;;;;;4830041;29;86858;-80
2022/02/03 15:29:49;;;;;;;17.77;14.07;;;;;;;;;;4830816;29;87252;-79
2022/02/03 15:32:17;;;;;;;15.55;13.95;;;;;;;;;;4813573;29;89129;-81
2022/02/03 15:34:47;;;;;;;18.73;13.52;;;;;;;;;;4827997;29;87421;-81
2022/02/03 15:37:16;;;;;;;19.60;16.08;;;;;;;;;;4828904;29;88406;-80
2022/02/03 15:39:51;;;;;;;18.55;12.73;;;;;;;;;;4844069;29;87163;-81
2022/02/03 15:42:27;;;;;;;29.88;20.77;;;;;;;;;;4842414;29;91522;-80
2022/02/03 15:44:56;;;;;;;17.98;16.17;;;;;;;;;;4830547;29;87469;-79
2022/02/03 15:47:32;;;;;;;17.02;13.15;;;;;;;;;;4813165;29;87005;-79
2022/02/03 16:15:08;;;;;;;24.67;21.50;;;;;;;;;;4828693;29;89420;-80
2022/02/03 16:17:10;;;;;;;19.85;17.48;;;;;;;;;;4828609;29;88955;-81
2022/02/03 16:23:00;;;;;;;24.50;16.23;;;;;;;;;;4822872;29;86389;-79
2022/02/03 16:43:14;;;;;;;21.33;15.18;;;;;;;;;;4838579;29;87247;-83
2022/02/03 16:53:24;;;;;;;19.00;14.52;;;;;;;;;;4846026;29;86984;-87
2022/02/03 16:55:51;;;;;;;17.95;15.90;;;;;;;;;;4843079;29;86963;-85
2022/02/03 16:58:18;;;;;;;47.85;21.50;;;;;;;;;;4840914;29;90106;-84
2022/02/03 17:00:47;;;;;;;35.30;20.83;;;;;;;;;;4842460;29;90280;-84
2022/02/03 17:03:15;;;;;;;31.70;18.48;;;;;;;;;;4835111;29;87034;-84
2022/02/03 17:05:43;;;;;;;31.77;20.98;;;;;;;;;;4841821;29;87052;-84
2022/02/03 17:08:10;;;;;;;32.63;24.55;;;;;;;;;;4830312;29;89121;-85
2022/02/03 17:10:37;;;;;;;44.90;22.27;;;;;;;;;;4828124;29;89042;-84
2022/02/03 17:13:04;;;;;;;26.83;20.85;;;;;;;;;;4831032;29;86988;-84
2022/02/03 17:15:31;;;;;;;44.08;29.63;;;;;;;;;;4827209;29;86178;-84
2022/02/03 17:17:58;;;;;;;51.22;36.10;;;;;;;;;;4841341;29;89689;-83
2022/02/03 17:20:31;;;;;;;38.03;28.40;;;;;;;;;;4841891;29;87751;-84
2022/02/03 17:22:59;;;;;;;33.05;26.73;;;;;;;;;;4827059;29;87857;-84
2022/02/03 17:25:32;;;;;;;37.95;28.90;;;;;;;;;;4828514;29;86810;-84
2022/02/03 17:30:42;;;;;;;36.58;27.58;;;;;;;;;;4828188;29;88870;-83
2022/02/03 18:09:01;;;;;;;27.80;20.33;;;;;;;;;;4844890;29;86266;-84
2022/02/03 18:11:52;;;;;;;43.75;22.50;;;;;;;;;;4843434;29;89763;-85
2022/02/03 18:30:57;;;;;;;46.97;20.00;;;;;;;;;;4844835;29;86829;-85
2022/02/03 18:52:42;;;;;;;43.08;30.25;;;;;;;;;;4845186;29;86834;-84
2022/02/03 18:55:20;;;;;;;38.20;23.20;;;;;;;;;;4829233;29;89166;-85
2022/02/03 19:27:51;;;;;;;29.85;20.58;;;;;;;;;;4802394;29;87757;-84
2022/02/03 20:08:18;;;;;;;29.20;20.88;;;;;;;;;;4828461;29;86902;-84
2022/02/03 20:10:48;;;;;;;34.75;23.63;;;;;;;;;;4842310;29;89269;-84
2022/02/03 20:13:15;;;;;;;29.13;22.60;;;;;;;;;;4843059;29;89426;-83
2022/02/03 20:15:43;;;;;;;33.20;20.48;;;;;;;;;;4829152;29;86846;-83
2022/02/03 20:18:14;;;;;;;29.88;20.88;;;;;;;;;;4828370;29;86957;-83
2022/02/03 20:20:42;;;;;;;27.60;20.77;;;;;;;;;;4842406;29;88422;-83
2022/02/03 20:23:16;;;;;;;30.17;19.65;;;;;;;;;;4828446;29;89782;-83
2022/02/03 20:25:51;;;;;;;26.77;21.90;;;;;;;;;;4828313;29;86823;-84
2022/02/03 20:28:18;;;;;;;39.58;23.88;;;;;;;;;;4826984;29;87038;-84
2022/02/03 20:30:45;;;;;;;34.10;24.42;;;;;;;;;;4828525;29;90283;-84
2022/02/03 20:33:13;;;;;;;33.85;25.17;;;;;;;;;;4828559;29;90015;-84
2022/02/03 20:35:40;;;;;;;35.70;24.08;;;;;;;;;;4829090;29;86971;-84
2022/02/03 20:38:07;;;;;;;31.02;21.27;;;;;;;;;;4827398;29;87082;-84
2022/02/03 20:40:35;;;;;;;35.83;22.48;;;;;;;;;;4842961;29;89847;-84
2022/02/03 20:43:08;;;;;;;32.03;25.67;;;;;;;;;;4828381;29;88997;-83
2022/02/03 20:45:35;;;;;;;30.25;22.33;;;;;;;;;;4843581;29;88121;-83
2022/02/03 20:48:03;;;;;;;41.47;24.58;;;;;;;;;;4843440;29;86279;-84
2022/02/03 20:50:30;;;;;;;29.92;21.52;;;;;;;;;;4843027;29;89014;-83
2022/02/03 20:52:57;;;;;;;30.02;21.65;;;;;;;;;;4828856;29;89453;-81
2022/02/03 20:55:30;;;;;;;32.35;23.20;;;;;;;;;;4828098;29;88037;-84
2022/02/03 20:57:57;;;;;;;31.00;21.85;;;;;;;;;;4828583;29;86883;-84
2022/02/03 21:00:40;;;;;;;30.48;22.13;;;;;;;;;;4841846;29;89267;-84
2022/02/03 21:03:20;;;;;;;35.33;25.00;;;;;;;;;;4828724;29;88977;-84
2022/02/03 21:05:47;;;;;;;31.15;23.08;;;;;;;;;;4828519;29;87202;-83
2022/02/03 21:08:18;;;;;;;29.00;22.55;;;;;;;;;;4828887;29;86929;-84
2022/02/03 21:10:48;;;;;;;27.77;21.35;;;;;;;;;;4828095;29;89635;-84
2022/02/03 21:13:15;;;;;;;26.05;20.33;;;;;;;;;;4828966;29;89482;-84
2022/02/03 21:15:42;;;;;;;33.90;22.35;;;;;;;;;;4842769;29;86951;-84
2022/02/03 21:18:11;;;;;;;35.70;25.25;;;;;;;;;;4842595;29;87027;-84
2022/02/03 21:20:40;;;;;;;30.45;22.08;;;;;;;;;;4841865;29;90588;-84
2022/02/03 21:23:09;;;;;;;27.95;19.50;;;;;;;;;;4842158;29;89919;-84
2022/02/03 21:25:41;;;;;;;28.77;19.92;;;;;;;;;;4827274;29;86971;-84
2022/02/03 21:28:14;;;;;;;32.42;21.27;;;;;;;;;;4826487;29;88287;-84
2022/02/03 21:30:42;;;;;;;30.67;22.98;;;;;;;;;;4827100;29;89731;-84
2022/02/03 21:33:15;;;;;;;27.92;19.95;;;;;;;;;;4828985;29;89393;-85
2022/02/03 21:35:45;;;;;;;21.88;19.45;;;;;;;;;;4831688;29;86837;-84
2022/02/03 21:38:13;;;;;;;27.10;20.67;;;;;;;;;;4831545;29;86173;-84
2022/02/03 21:40:40;;;;;;;25.00;18.40;;;;;;;;;;4831686;29;88435;-83
2022/02/03 21:43:07;;;;;;;29.25;20.92;;;;;;;;;;4845498;29;89221;-83
2022/02/03 21:45:36;;;;;;;23.55;18.48;;;;;;;;;;4831051;29;87928;-84
2022/02/03 21:48:03;;;;;;;34.88;20.08;;;;;;;;;;4831656;29;86952;-84
2022/02/03 21:50:35;;;;;;;27.73;20.38;;;;;;;;;;4829599;29;89066;-84
2022/02/03 21:53:06;;;;;;;29.55;18.17;;;;;;;;;;4830126;29;91019;-84
2022/02/03 21:55:35;;;;;;;28.58;18.05;;;;;;;;;;4814682;29;86916;-84
2022/02/03 21:58:03;;;;;;;26.77;18.85;;;;;;;;;;4831104;29;86885;-84
2022/02/03 22:00:30;;;;;;;26.75;20.10;;;;;;;;;;4830406;29;88772;-84
2022/02/03 22:02:57;;;;;;;24.85;18.98;;;;;;;;;;4831413;29;90399;-84
2022/02/03 22:05:24;;;;;;;29.40;18.38;;;;;;;;;;4830695;29;86831;-84
2022/02/03 22:07:51;;;;;;;23.30;16.02;;;;;;;;;;4830155;29;86923;-83
2022/02/03 22:10:20;;;;;;;24.88;19.00;;;;;;;;;;4844768;29;91965;-84
2022/02/03 22:12:48;;;;;;;25.23;18.67;;;;;;;;;;4829759;29;90804;-84
2022/02/03 22:15:17;;;;;;;29.45;19.65;;;;;;;;;;4829891;29;86991;-84
2022/02/03 22:17:44;;;;;;;30.50;20.33;;;;;;;;;;4829467;29;86998;-84
2022/02/03 22:21:00;;;;;;;28.13;20.63;;;;;;;;;;4844972;29;90602;-85
2022/02/03 22:26:01;;;;;;;28.20;19.98;;;;;;;;;;4829957;29;86960;-84
2022/02/03 22:39:18;;;;;;;27.30;19.58;;;;;;;;;;4829689;29;86983;-84
2022/02/03 22:44:42;;;;;;;24.83;17.63;;;;;;;;;;4829835;29;87448;-83
2022/02/03 22:49:43;;;;;;;28.23;18.13;;;;;;;;;;4843945;29;86877;-85
2022/02/03 22:52:11;;;;;;;24.80;19.52;;;;;;;;;;4830679;29;89801;-84
2022/02/03 22:54:39;;;;;;;22.88;18.23;;;;;;;;;;4830829;29;89203;-84
2022/02/03 22:57:08;;;;;;;23.02;18.15;;;;;;;;;;4829249;29;86929;-84
2022/02/03 23:02:22;;;;;;;23.40;16.98;;;;;;;;;;4828835;29;89898;-85
2022/02/03 23:04:49;;;;;;;38.67;18.70;;;;;;;;;;4844577;29;89272;-84
2022/02/03 23:09:49;;;;;;;27.05;17.30;;;;;;;;;;4845018;29;87031;-85
2022/02/03 23:15:28;;;;;;;23.90;16.35;;;;;;;;;;4829224;29;88525;-84
2022/02/03 23:17:54;;;;;;;21.55;15.32;;;;;;;;;;4840811;29;86984;-84
2022/02/03 23:20:26;;;;;;;19.70;13.27;;;;;;;;;;4830789;29;86174;-84
2022/02/03 23:22:53;;;;;;;24.10;13.27;;;;;;;;;;4829790;29;89979;-85
2022/02/03 23:25:21;;;;;;;21.33;13.52;;;;;;;;;;4830208;29;86814;-85
2022/02/03 23:30:23;;;;;;;18.52;14.32;;;;;;;;;;4829062;29;86957;-85
2022/02/03 23:32:53;;;;;;;18.75;12.80;;;;;;;;;;4828878;29;89515;-85
2022/02/03 23:35:28;;;;;;;15.45;12.55;;;;;;;;;;4828567;29;89274;-84
2022/02/03 23:38:46;;;;;;;20.63;14.98;;;;;;;;;;4828994;29;86810;-85
